Time;durP1;ratioP1;P1;durP2;ratioP2;P2;SDS_P1;SDS_P2;PMS_P1;PMS_P2;Temp;Humidity;BMP_temperature;BMP_pressure;BME280_temperature;BME280_humidity;BME280_pressure;Samples;Min_cycle;Max_cycle;Signal;HPM_P1;HPM_P2
2021/06/25 00:02:04;;;;;;;7.05;3.38;;;;;;;;;;5017738;28;20638;-44
2021/06/25 00:04:30;;;;;;;5.10;3.17;;;;;;;;;;5017822;28;20271;-45
2021/06/25 00:06:56;;;;;;;5.60;3.60;;;;;;;;;;5014638;28;20264;-45
2021/06/25 00:09:22;;;;;;;3.80;3.40;;;;;;;;;;5017242;28;20216;-45
2021/06/25 00:11:48;;;;;;;4.57;3.63;;;;;;;;;;5006919;28;20181;-44
2021/06/25 00:14:20;;;;;;;7.68;4.15;;;;;;;;;;5007842;28;20238;-44
2021/06/25 00:16:47;;;;;;;3.85;3.35;;;;;;;;;;4998834;28;20253;-44
2021/06/25 00:19:13;;;;;;;4.38;3.80;;;;;;;;;;5002999;28;20188;-44
2021/06/25 00:21:38;;;;;;;4.13;3.25;;;;;;;;;;5017146;28;20234;-44
2021/06/25 00:24:05;;;;;;;6.60;4.13;;;;;;;;;;5017627;28;20909;-45
2021/06/25 00:26:31;;;;;;;7.10;4.43;;;;;;;;;;5017077;28;20231;-44
2021/06/25 00:28:57;;;;;;;6.95;4.40;;;;;;;;;;5007391;28;20522;-45
2021/06/25 00:31:23;;;;;;;6.60;4.13;;;;;;;;;;5000357;28;20178;-45
2021/06/25 00:33:49;;;;;;;6.03;3.83;;;;;;;;;;5006917;28;20185;-45
2021/06/25 00:36:15;;;;;;;5.30;4.25;;;;;;;;;;4998509;28;20189;-44
2021/06/25 00:38:41;;;;;;;6.00;4.68;;;;;;;;;;4998733;28;20523;-44
2021/06/25 00:41:07;;;;;;;7.22;4.43;;;;;;;;;;5000546;28;20196;-44
2021/06/25 00:43:33;;;;;;;6.70;4.78;;;;;;;;;;5012405;28;20212;-45
2021/06/25 00:45:59;;;;;;;6.80;4.68;;;;;;;;;;5006948;28;20267;-44
2021/06/25 00:48:25;;;;;;;7.55;5.32;;;;;;;;;;5014929;28;20710;-45
2021/06/25 00:50:51;;;;;;;4.97;4.10;;;;;;;;;;5016368;28;20172;-45
2021/06/25 00:53:17;;;;;;;8.65;5.05;;;;;;;;;;5017299;28;20164;-44
2021/06/25 00:55:43;;;;;;;6.13;5.40;;;;;;;;;;5017001;28;20272;-44
2021/06/25 00:58:13;;;;;;;7.22;5.90;;;;;;;;;;5012871;28;20278;-44
2021/06/25 01:00:39;;;;;;;6.28;5.03;;;;;;;;;;5002435;28;20580;-45
2021/06/25 01:03:05;;;;;;;7.28;5.43;;;;;;;;;;4997164;28;20173;-45
2021/06/25 01:05:31;;;;;;;9.02;5.28;;;;;;;;;;5014979;28;20195;-45
2021/06/25 01:07:57;;;;;;;6.53;4.80;;;;;;;;;;5016284;28;20192;-45
2021/06/25 01:10:23;;;;;;;6.07;4.57;;;;;;;;;;5015684;28;20187;-45
2021/06/25 01:12:49;;;;;;;8.90;5.88;;;;;;;;;;4999086;28;20184;-45
2021/06/25 01:15:15;;;;;;;8.52;5.45;;;;;;;;;;5000812;28;20176;-45
2021/06/25 01:17:42;;;;;;;10.65;7.20;;;;;;;;;;4996798;28;20515;-45
2021/06/25 01:20:16;;;;;;;9.48;6.05;;;;;;;;;;4998567;28;20170;-44
2021/06/25 01:22:42;;;;;;;6.22;4.93;;;;;;;;;;4997923;28;20615;-44
2021/06/25 01:25:10;;;;;;;8.38;5.35;;;;;;;;;;5004986;28;20184;-44
2021/06/25 01:27:37;;;;;;;7.07;5.97;;;;;;;;;;5013310;28;20180;-44
2021/06/25 01:30:05;;;;;;;8.13;7.03;;;;;;;;;;4996636;28;20211;-44
2021/06/25 01:32:31;;;;;;;13.77;8.68;;;;;;;;;;4997817;28;20491;-45
2021/06/25 01:34:59;;;;;;;9.40;6.78;;;;;;;;;;4996773;28;20169;-45
2021/06/25 01:37:26;;;;;;;10.65;7.47;;;;;;;;;;4998351;28;20219;-45
2021/06/25 01:39:52;;;;;;;9.02;7.35;;;;;;;;;;4997489;28;20208;-45
2021/06/25 01:42:18;;;;;;;7.15;6.45;;;;;;;;;;5005300;28;20744;-45
2021/06/25 01:44:45;;;;;;;9.82;7.65;;;;;;;;;;5008366;28;20184;-44
2021/06/25 01:47:11;;;;;;;9.07;6.38;;;;;;;;;;5010834;28;20820;-44
2021/06/25 01:49:37;;;;;;;8.50;7.03;;;;;;;;;;5010613;28;20200;-44
2021/06/25 01:52:04;;;;;;;7.15;5.80;;;;;;;;;;4996406;28;20165;-44
2021/06/25 01:54:30;;;;;;;7.55;6.03;;;;;;;;;;5011765;28;20176;-44
2021/06/25 01:56:56;;;;;;;8.05;7.25;;;;;;;;;;5011996;28;20559;-45
2021/06/25 01:59:23;;;;;;;9.23;6.50;;;;;;;;;;5003106;28;20193;-45
2021/06/25 02:01:49;;;;;;;9.82;8.30;;;;;;;;;;5006320;28;20628;-45
2021/06/25 02:04:15;;;;;;;7.63;5.70;;;;;;;;;;4995904;28;20208;-45
2021/06/25 02:06:40;;;;;;;7.00;6.30;;;;;;;;;;4997611;28;20181;-45
2021/06/25 02:09:06;;;;;;;8.35;6.60;;;;;;;;;;5006649;28;20204;-45
2021/06/25 02:11:33;;;;;;;8.02;7.18;;;;;;;;;;5010655;28;20447;-45
2021/06/25 02:13:58;;;;;;;7.82;6.68;;;;;;;;;;5005944;28;20181;-45
2021/06/25 02:16:24;;;;;;;6.60;5.90;;;;;;;;;;5010587;28;20187;-45
2021/06/25 02:18:50;;;;;;;7.93;6.63;;;;;;;;;;5014040;28;20212;-45
2021/06/25 02:21:16;;;;;;;6.07;5.13;;;;;;;;;;5002207;28;20185;-45
2021/06/25 02:23:42;;;;;;;7.13;6.00;;;;;;;;;;4995562;28;20560;-45
2021/06/25 02:26:08;;;;;;;9.02;5.72;;;;;;;;;;4995122;28;20166;-45
2021/06/25 02:28:35;;;;;;;6.65;5.97;;;;;;;;;;5000834;28;20517;-45
2021/06/25 02:31:00;;;;;;;6.80;5.68;;;;;;;;;;5003454;28;20184;-45
2021/06/25 02:33:27;;;;;;;6.72;6.13;;;;;;;;;;5010318;28;20444;-44
2021/06/25 02:35:53;;;;;;;6.88;6.25;;;;;;;;;;5014791;28;20469;-44
2021/06/25 02:38:19;;;;;;;7.22;5.38;;;;;;;;;;5013169;28;20180;-45
2021/06/25 02:40:45;;;;;;;6.55;5.93;;;;;;;;;;5012754;28;20180;-45
2021/06/25 02:43:11;;;;;;;7.65;6.63;;;;;;;;;;4996734;28;20596;-45
2021/06/25 02:45:37;;;;;;;6.35;5.80;;;;;;;;;;5012123;28;20182;-44
2021/06/25 02:48:03;;;;;;;6.88;5.97;;;;;;;;;;4999025;28;20252;-44
2021/06/25 02:50:29;;;;;;;7.03;6.10;;;;;;;;;;4995456;28;20247;-45
2021/06/25 02:52:55;;;;;;;6.45;5.82;;;;;;;;;;4995229;28;20224;-45
2021/06/25 02:55:21;;;;;;;5.93;5.43;;;;;;;;;;4995481;28;20953;-45
2021/06/25 02:57:47;;;;;;;5.82;5.32;;;;;;;;;;5005769;28;20203;-45
2021/06/25 03:00:15;;;;;;;6.05;4.35;;;;;;;;;;5003870;28;20215;-45
2021/06/25 03:02:41;;;;;;;5.40;4.90;;;;;;;;;;5015202;28;20179;-44
2021/06/25 03:05:08;;;;;;;5.20;4.70;;;;;;;;;;5002661;28;20281;-44
2021/06/25 03:07:35;;;;;;;5.35;4.45;;;;;;;;;;4996492;28;20871;-44
2021/06/25 03:10:01;;;;;;;5.80;5.30;;;;;;;;;;5014264;28;20242;-44
2021/06/25 03:12:27;;;;;;;4.97;4.57;;;;;;;;;;5012301;28;20177;-44
2021/06/25 03:14:53;;;;;;;5.20;4.68;;;;;;;;;;5004594;28;20548;-44
2021/06/25 03:17:19;;;;;;;5.68;5.18;;;;;;;;;;5013708;28;20429;-44
2021/06/25 03:19:45;;;;;;;5.18;4.65;;;;;;;;;;5004151;28;20195;-45
2021/06/25 03:22:11;;;;;;;5.03;4.63;;;;;;;;;;5019463;28;20830;-45
2021/06/25 03:24:37;;;;;;;4.57;4.28;;;;;;;;;;5020548;28;20199;-45
2021/06/25 03:27:03;;;;;;;5.20;4.70;;;;;;;;;;5011736;28;20212;-44
2021/06/25 03:29:29;;;;;;;5.47;4.97;;;;;;;;;;5008390;28;20231;-44
2021/06/25 03:31:55;;;;;;;5.40;4.90;;;;;;;;;;5020559;28;20543;-44
2021/06/25 03:34:21;;;;;;;5.25;4.75;;;;;;;;;;5021051;28;20164;-44
2021/06/25 03:36:47;;;;;;;5.05;4.65;;;;;;;;;;5012433;28;20460;-45
2021/06/25 03:39:14;;;;;;;4.88;4.47;;;;;;;;;;5009063;28;20196;-45
2021/06/25 03:41:40;;;;;;;5.28;4.88;;;;;;;;;;5015067;28;20181;-45
2021/06/25 03:44:06;;;;;;;5.05;4.55;;;;;;;;;;5003016;28;20243;-44
2021/06/25 03:46:32;;;;;;;5.75;4.95;;;;;;;;;;5008753;28;20571;-44
2021/06/25 03:48:58;;;;;;;5.18;4.70;;;;;;;;;;5020690;28;20200;-44
2021/06/25 03:51:24;;;;;;;6.70;5.75;;;;;;;;;;5014839;28;20181;-44
2021/06/25 03:53:50;;;;;;;6.18;5.57;;;;;;;;;;5017508;28;20233;-44
2021/06/25 03:56:16;;;;;;;7.63;5.50;;;;;;;;;;5013905;28;20211;-44
2021/06/25 03:58:43;;;;;;;11.90;5.30;;;;;;;;;;5015012;28;20204;-44
2021/06/25 04:01:10;;;;;;;5.50;5.00;;;;;;;;;;5014371;28;20523;-44
2021/06/25 04:03:40;;;;;;;5.30;4.80;;;;;;;;;;5018187;28;20193;-44
2021/06/25 04:06:06;;;;;;;5.45;4.80;;;;;;;;;;5002856;28;20188;-44
2021/06/25 04:08:32;;;;;;;5.35;4.75;;;;;;;;;;5011450;28;20258;-45
2021/06/25 04:10:59;;;;;;;6.85;6.00;;;;;;;;;;5017236;28;20263;-45
2021/06/25 04:13:25;;;;;;;5.00;4.60;;;;;;;;;;5017144;28;20215;-45
2021/06/25 04:15:52;;;;;;;4.88;4.47;;;;;;;;;;5001502;28;20587;-45
2021/06/25 04:18:18;;;;;;;5.28;4.78;;;;;;;;;;5000777;28;20184;-45
2021/06/25 04:20:45;;;;;;;6.25;5.35;;;;;;;;;;5013209;28;20188;-45
2021/06/25 04:23:11;;;;;;;8.63;5.60;;;;;;;;;;5020542;28;20566;-45
2021/06/25 04:25:37;;;;;;;8.48;5.60;;;;;;;;;;5010045;28;20188;-45
2021/06/25 04:28:03;;;;;;;6.22;5.00;;;;;;;;;;5015254;28;20271;-45
2021/06/25 04:30:30;;;;;;;8.88;6.10;;;;;;;;;;5006434;28;20180;-45
2021/06/25 04:32:59;;;;;;;6.63;5.93;;;;;;;;;;5009637;28;20177;-45
2021/06/25 04:35:25;;;;;;;6.72;6.13;;;;;;;;;;5012660;28;20178;-45
2021/06/25 04:37:51;;;;;;;5.82;5.32;;;;;;;;;;5002572;28;20177;-45
2021/06/25 04:40:17;;;;;;;7.85;6.50;;;;;;;;;;4997626;28;20215;-45
2021/06/25 04:42:44;;;;;;;6.93;5.80;;;;;;;;;;5011525;28;20215;-45
2021/06/25 04:45:11;;;;;;;10.10;6.85;;;;;;;;;;5013366;28;20553;-45
2021/06/25 04:47:37;;;;;;;5.43;4.82;;;;;;;;;;5009352;28;20185;-45
2021/06/25 04:50:04;;;;;;;9.07;6.57;;;;;;;;;;5016966;28;20204;-45
2021/06/25 04:52:30;;;;;;;8.10;6.13;;;;;;;;;;5003627;28;20192;-45
2021/06/25 04:54:55;;;;;;;8.98;6.93;;;;;;;;;;4997885;28;20185;-45
2021/06/25 04:57:21;;;;;;;7.25;6.55;;;;;;;;;;5008700;28;20187;-45
2021/06/25 04:59:47;;;;;;;10.40;6.63;;;;;;;;;;5014548;28;20492;-45
2021/06/25 05:02:13;;;;;;;8.77;6.18;;;;;;;;;;5016128;28;20196;-45
2021/06/25 05:04:39;;;;;;;10.73;7.07;;;;;;;;;;4997055;28;20219;-45
2021/06/25 05:07:05;;;;;;;7.80;6.53;;;;;;;;;;5014141;28;20192;-45
2021/06/25 05:09:31;;;;;;;7.47;5.65;;;;;;;;;;5009190;28;20200;-45
2021/06/25 05:11:57;;;;;;;8.13;6.55;;;;;;;;;;5004526;28;20707;-45
2021/06/25 05:14:23;;;;;;;8.13;7.20;;;;;;;;;;5007845;28;20181;-45
2021/06/25 05:16:50;;;;;;;8.75;6.63;;;;;;;;;;4997645;28;20182;-45
2021/06/25 05:19:16;;;;;;;7.18;6.47;;;;;;;;;;4996906;28;20196;-45
2021/06/25 05:21:42;;;;;;;8.57;6.82;;;;;;;;;;4999828;28;20449;-45
2021/06/25 05:24:08;;;;;;;9.65;7.85;;;;;;;;;;4997012;28;20185;-45
2021/06/25 05:26:34;;;;;;;6.97;6.05;;;;;;;;;;5009518;28;20598;-45
2021/06/25 05:29:00;;;;;;;6.75;5.85;;;;;;;;;;5007696;28;20540;-45
2021/06/25 05:31:26;;;;;;;5.53;5.07;;;;;;;;;;5002786;28;20260;-45
2021/06/25 05:33:52;;;;;;;9.55;6.28;;;;;;;;;;5010403;28;20216;-45
2021/06/25 05:36:18;;;;;;;8.23;6.90;;;;;;;;;;5004783;28;20594;-45
2021/06/25 05:38:44;;;;;;;8.05;7.00;;;;;;;;;;5006778;28;20193;-45
2021/06/25 05:41:11;;;;;;;10.73;6.93;;;;;;;;;;4996600;28;20183;-45
2021/06/25 05:43:37;;;;;;;7.70;6.90;;;;;;;;;;4997818;28;20184;-45
2021/06/25 05:46:03;;;;;;;7.47;6.32;;;;;;;;;;5010034;28;20234;-45
2021/06/25 05:48:29;;;;;;;7.65;6.40;;;;;;;;;;5010540;28;20213;-45
2021/06/25 05:50:55;;;;;;;7.53;5.82;;;;;;;;;;5007984;28;20236;-45
2021/06/25 05:53:21;;;;;;;11.95;6.68;;;;;;;;;;5004545;28;20462;-45
2021/06/25 05:55:47;;;;;;;8.07;6.30;;;;;;;;;;5001051;28;20239;-45
2021/06/25 05:58:13;;;;;;;12.35;8.48;;;;;;;;;;5003328;28;20872;-45
2021/06/25 06:00:39;;;;;;;11.20;9.82;;;;;;;;;;5005192;28;20208;-45
2021/06/25 06:03:05;;;;;;;10.77;8.88;;;;;;;;;;5008347;28;20203;-46
2021/06/25 06:05:31;;;;;;;9.13;8.07;;;;;;;;;;5011120;28;20494;-46
2021/06/25 06:07:57;;;;;;;11.32;8.25;;;;;;;;;;5001998;28;20216;-45
2021/06/25 06:10:23;;;;;;;10.98;7.65;;;;;;;;;;5007724;28;20312;-45
2021/06/25 06:12:49;;;;;;;11.25;7.15;;;;;;;;;;5000903;28;20578;-45
2021/06/25 06:15:17;;;;;;;8.98;6.78;;;;;;;;;;5011548;28;20281;-45
2021/06/25 06:17:46;;;;;;;10.68;7.38;;;;;;;;;;5006689;28;20259;-45
2021/06/25 06:20:17;;;;;;;10.15;7.60;;;;;;;;;;5003176;28;20195;-45
2021/06/25 06:33:46;;;;;;;12.57;9.43;;;;;;;;;;5004722;28;20289;-45
2021/06/25 06:36:26;;;;;;;11.98;9.45;;;;;;;;;;4996947;28;20592;-45
2021/06/25 06:38:53;;;;;;;13.68;10.40;;;;;;;;;;4999053;28;20196;-45
2021/06/25 06:41:20;;;;;;;12.13;9.50;;;;;;;;;;5006686;28;20585;-45
2021/06/25 06:43:47;;;;;;;11.15;8.50;;;;;;;;;;5009882;28;20247;-45
2021/06/25 06:46:13;;;;;;;14.30;9.48;;;;;;;;;;5011869;28;20199;-45
2021/06/25 06:48:40;;;;;;;11.95;9.10;;;;;;;;;;5002981;28;20346;-46
2021/06/25 06:51:06;;;;;;;12.75;8.68;;;;;;;;;;4999138;28;20192;-45
2021/06/25 06:53:32;;;;;;;10.80;8.25;;;;;;;;;;4999889;28;20181;-45
2021/06/25 06:55:59;;;;;;;12.95;8.45;;;;;;;;;;5010800;28;20600;-45
2021/06/25 06:58:25;;;;;;;10.57;8.15;;;;;;;;;;5006044;28;20574;-45
2021/06/25 07:00:51;;;;;;;9.95;8.27;;;;;;;;;;5008137;28;20219;-45
2021/06/25 07:03:17;;;;;;;13.82;8.65;;;;;;;;;;5007059;28;20220;-45
2021/06/25 07:05:43;;;;;;;9.43;7.75;;;;;;;;;;4998185;28;20216;-45
2021/06/25 07:08:09;;;;;;;11.40;8.45;;;;;;;;;;5008413;28;20205;-45
2021/06/25 07:10:35;;;;;;;11.55;8.95;;;;;;;;;;4999048;28;20195;-45
2021/06/25 07:13:01;;;;;;;9.98;7.88;;;;;;;;;;4998472;28;20238;-45
2021/06/25 07:15:27;;;;;;;14.48;8.55;;;;;;;;;;5011893;28;20555;-45
2021/06/25 07:17:53;;;;;;;9.68;7.80;;;;;;;;;;5012485;28;20177;-45
2021/06/25 07:20:19;;;;;;;11.45;8.57;;;;;;;;;;4996767;28;20251;-45
2021/06/25 07:22:45;;;;;;;13.65;7.95;;;;;;;;;;5007759;28;20726;-45
2021/06/25 07:25:11;;;;;;;10.05;8.20;;;;;;;;;;5013682;28;20215;-45
2021/06/25 07:27:38;;;;;;;10.07;8.13;;;;;;;;;;4998914;28;20189;-46
2021/06/25 07:30:05;;;;;;;9.32;8.40;;;;;;;;;;4996875;28;20224;-45
2021/06/25 07:32:31;;;;;;;11.45;8.93;;;;;;;;;;5016987;28;20178;-45
2021/06/25 07:34:57;;;;;;;12.70;8.88;;;;;;;;;;5000173;28;20174;-45
2021/06/25 07:37:23;;;;;;;11.15;7.90;;;;;;;;;;5012708;28;20192;-45
2021/06/25 07:39:49;;;;;;;10.95;8.30;;;;;;;;;;4997711;28;20260;-45
2021/06/25 07:42:15;;;;;;;9.63;7.82;;;;;;;;;;5014186;28;20271;-46
2021/06/25 07:44:41;;;;;;;10.75;8.35;;;;;;;;;;5001420;28;20195;-46
2021/06/25 07:47:07;;;;;;;9.52;7.40;;;;;;;;;;5002305;28;20189;-46
2021/06/25 07:49:34;;;;;;;9.88;7.15;;;;;;;;;;5010532;28;20209;-45
2021/06/25 07:52:00;;;;;;;10.77;7.18;;;;;;;;;;5002378;28;20177;-45
2021/06/25 07:54:26;;;;;;;8.57;7.30;;;;;;;;;;5000333;28;20718;-45
2021/06/25 07:56:52;;;;;;;11.32;7.00;;;;;;;;;;5002643;28;20182;-45
2021/06/25 07:59:18;;;;;;;9.30;7.80;;;;;;;;;;5004772;28;20231;-45
2021/06/25 08:01:44;;;;;;;10.52;7.22;;;;;;;;;;5006812;28;20555;-45
2021/06/25 08:04:10;;;;;;;8.23;7.03;;;;;;;;;;5006232;28;20201;-45
2021/06/25 08:06:36;;;;;;;7.95;7.00;;;;;;;;;;5010621;28;20200;-45
2021/06/25 08:09:04;;;;;;;8.90;7.30;;;;;;;;;;5017046;28;20250;-45
2021/06/25 08:11:30;;;;;;;10.90;7.32;;;;;;;;;;5007309;28;20601;-45
2021/06/25 08:13:56;;;;;;;10.35;7.38;;;;;;;;;;5003017;28;20214;-45
2021/06/25 08:16:22;;;;;;;9.25;7.03;;;;;;;;;;5011564;28;20211;-45
2021/06/25 08:18:56;;;;;;;12.77;7.80;;;;;;;;;;5015033;28;20563;-45
2021/06/25 08:21:22;;;;;;;12.02;7.93;;;;;;;;;;5009879;28;20181;-45
2021/06/25 08:23:48;;;;;;;13.75;9.43;;;;;;;;;;4999911;28;20608;-45
2021/06/25 08:26:14;;;;;;;10.25;7.57;;;;;;;;;;5005700;28;20181;-46
2021/06/25 08:28:40;;;;;;;8.50;6.90;;;;;;;;;;5005994;28;20224;-46
2021/06/25 08:31:06;;;;;;;12.98;6.55;;;;;;;;;;5011324;28;20200;-46
2021/06/25 08:33:32;;;;;;;8.98;6.10;;;;;;;;;;5000007;28;20184;-46
2021/06/25 08:35:58;;;;;;;9.70;6.05;;;;;;;;;;4999930;28;20185;-46
2021/06/25 08:38:24;;;;;;;10.55;6.75;;;;;;;;;;5011061;28;20239;-46
2021/06/25 08:40:50;;;;;;;9.25;6.50;;;;;;;;;;5002588;28;20193;-45
2021/06/25 08:43:16;;;;;;;10.70;6.13;;;;;;;;;;4998938;28;20178;-45
2021/06/25 08:45:43;;;;;;;10.50;6.53;;;;;;;;;;5009223;28;20208;-45
2021/06/25 08:48:10;;;;;;;9.38;5.82;;;;;;;;;;5011084;28;22158;-45
2021/06/25 08:50:39;;;;;;;6.95;5.70;;;;;;;;;;5016383;28;20175;-45
2021/06/25 08:53:06;;;;;;;7.53;6.35;;;;;;;;;;5010339;28;20437;-46
2021/06/25 08:55:32;;;;;;;8.27;5.70;;;;;;;;;;5009251;28;20212;-45
2021/06/25 08:57:58;;;;;;;9.32;5.60;;;;;;;;;;5010774;28;20177;-45
2021/06/25 09:00:24;;;;;;;10.30;6.45;;;;;;;;;;5015176;28;20180;-45
2021/06/25 09:02:50;;;;;;;6.70;5.38;;;;;;;;;;5009973;28;20181;-45
2021/06/25 09:05:22;;;;;;;8.38;6.18;;;;;;;;;;5011746;28;20188;-45
2021/06/25 09:07:49;;;;;;;7.65;5.72;;;;;;;;;;5006644;28;20261;-45
2021/06/25 09:10:16;;;;;;;8.43;5.75;;;;;;;;;;4998495;28;20292;-45
2021/06/25 09:13:04;;;;;;;8.63;6.50;;;;;;;;;;5013330;28;20284;-45
2021/06/25 09:15:34;;;;;;;10.98;7.05;;;;;;;;;;4997086;28;20284;-45
2021/06/25 09:18:04;;;;;;;11.52;6.90;;;;;;;;;;4996559;28;20181;-45
2021/06/25 09:20:47;;;;;;;8.40;6.00;;;;;;;;;;4996767;28;20260;-45
2021/06/25 09:23:22;;;;;;;8.82;6.00;;;;;;;;;;5012227;28;20568;-45
2021/06/25 09:25:49;;;;;;;7.15;6.15;;;;;;;;;;5006496;28;20584;-45
2021/06/25 09:28:21;;;;;;;8.88;6.45;;;;;;;;;;5011586;28;20201;-45
2021/06/25 09:30:47;;;;;;;10.80;6.88;;;;;;;;;;4997781;28;20169;-45
2021/06/25 09:33:13;;;;;;;9.07;7.55;;;;;;;;;;5001302;28;20212;-45
2021/06/25 09:35:39;;;;;;;9.32;7.32;;;;;;;;;;5006881;28;20607;-45
2021/06/25 09:38:05;;;;;;;10.15;7.00;;;;;;;;;;5008337;28;20560;-46
2021/06/25 09:40:36;;;;;;;8.52;6.40;;;;;;;;;;5009618;28;20191;-46
2021/06/25 09:43:12;;;;;;;7.88;6.43;;;;;;;;;;5002663;28;20183;-46
2021/06/25 09:45:48;;;;;;;11.10;7.75;;;;;;;;;;5004677;28;20180;-46
2021/06/25 09:48:14;;;;;;;16.65;8.85;;;;;;;;;;5006690;28;20204;-45
2021/06/25 09:50:41;;;;;;;17.30;7.78;;;;;;;;;;4997616;28;20177;-45
2021/06/25 09:53:07;;;;;;;12.65;8.25;;;;;;;;;;5000721;28;20235;-45
2021/06/25 09:55:49;;;;;;;9.63;5.57;;;;;;;;;;5012245;28;20180;-45
2021/06/25 10:01:29;;;;;;;9.90;6.35;;;;;;;;;;5003631;28;20199;-46
2021/06/25 10:03:59;;;;;;;11.35;7.15;;;;;;;;;;5000084;28;20456;-46
2021/06/25 10:06:26;;;;;;;10.20;7.05;;;;;;;;;;5001752;28;20177;-46
2021/06/25 10:08:53;;;;;;;13.18;8.00;;;;;;;;;;4995855;28;20248;-45
2021/06/25 10:11:20;;;;;;;11.63;7.32;;;;;;;;;;5006852;28;20176;-45
2021/06/25 10:13:46;;;;;;;10.98;7.30;;;;;;;;;;5003869;28;20192;-45
2021/06/25 10:16:13;;;;;;;12.32;7.78;;;;;;;;;;5002265;28;20185;-45
2021/06/25 10:18:39;;;;;;;9.80;7.07;;;;;;;;;;5007279;28;20580;-45
2021/06/25 10:21:06;;;;;;;8.88;7.07;;;;;;;;;;5003942;28;20188;-45
2021/06/25 10:23:33;;;;;;;8.00;6.45;;;;;;;;;;4999050;28;20573;-46
2021/06/25 10:26:01;;;;;;;6.78;5.85;;;;;;;;;;5002079;28;20215;-45
2021/06/25 10:28:28;;;;;;;8.52;5.80;;;;;;;;;;5000728;28;20197;-45
2021/06/25 10:30:54;;;;;;;11.32;6.28;;;;;;;;;;4999473;28;20181;-45
2021/06/25 10:33:20;;;;;;;12.05;5.75;;;;;;;;;;5001305;28;20212;-46
2021/06/25 10:35:49;;;;;;;8.95;5.95;;;;;;;;;;5002418;28;20181;-46
2021/06/25 10:38:18;;;;;;;11.77;5.72;;;;;;;;;;4995265;28;20192;-46
2021/06/25 10:40:54;;;;;;;6.75;5.68;;;;;;;;;;5009632;28;20183;-46
2021/06/25 10:43:40;;;;;;;8.15;5.80;;;;;;;;;;5004646;28;20180;-46
2021/06/25 10:46:07;;;;;;;10.63;5.75;;;;;;;;;;5002054;28;20196;-46
2021/06/25 10:48:37;;;;;;;8.73;5.53;;;;;;;;;;4999890;28;20241;-46
2021/06/25 10:51:25;;;;;;;6.72;5.03;;;;;;;;;;4997664;28;20211;-46
2021/06/25 10:54:09;;;;;;;8.43;5.97;;;;;;;;;;5002713;28;20498;-45
2021/06/25 10:56:39;;;;;;;7.45;5.80;;;;;;;;;;4997721;28;20187;-45
2021/06/25 10:59:26;;;;;;;6.13;5.40;;;;;;;;;;4999616;28;20271;-45
2021/06/25 11:01:56;;;;;;;8.15;5.88;;;;;;;;;;5004409;28;20217;-45
2021/06/25 11:04:39;;;;;;;9.38;5.25;;;;;;;;;;5011649;28;20218;-46
2021/06/25 11:07:08;;;;;;;7.30;5.75;;;;;;;;;;5009552;28;20180;-46
2021/06/25 11:09:52;;;;;;;7.35;5.80;;;;;;;;;;5000422;28;20472;-46
2021/06/25 11:12:22;;;;;;;7.25;5.50;;;;;;;;;;5005597;28;20173;-46
2021/06/25 11:14:49;;;;;;;7.47;5.32;;;;;;;;;;4995777;28;20560;-46
2021/06/25 11:17:33;;;;;;;6.03;4.90;;;;;;;;;;4999350;28;20823;-46
2021/06/25 11:20:35;;;;;;;7.97;5.57;;;;;;;;;;4993587;28;20188;-46
2021/06/25 11:23:01;;;;;;;6.30;5.63;;;;;;;;;;4959404;28;20540;-46
2021/06/25 11:25:34;;;;;;;5.95;5.32;;;;;;;;;;5001621;28;20230;-46
2021/06/25 11:28:59;;;;;;;7.22;5.45;;;;;;;;;;5002866;28;20193;-46
2021/06/25 11:31:09;;;;;;;6.72;5.32;;;;;;;;;;4993731;28;20272;-46
2021/06/25 11:33:35;;;;;;;7.57;5.20;;;;;;;;;;4995822;28;20219;-46
2021/06/25 11:36:20;;;;;;;6.13;5.18;;;;;;;;;;5003345;28;20215;-46
2021/06/25 11:39:03;;;;;;;6.43;5.30;;;;;;;;;;4997522;28;20191;-45
2021/06/25 11:41:38;;;;;;;7.40;5.20;;;;;;;;;;5002022;28;20472;-45
2021/06/25 11:44:05;;;;;;;6.82;5.60;;;;;;;;;;5008242;28;20318;-45
2021/06/25 11:46:31;;;;;;;6.55;5.35;;;;;;;;;;5010299;28;20181;-45
2021/06/25 11:49:03;;;;;;;6.30;5.40;;;;;;;;;;5009617;28;20263;-45
2021/06/25 11:51:36;;;;;;;5.88;4.93;;;;;;;;;;5001240;28;20192;-45
2021/06/25 11:54:04;;;;;;;5.32;4.72;;;;;;;;;;5010306;28;20188;-45
2021/06/25 11:56:30;;;;;;;7.93;5.10;;;;;;;;;;5005189;28;20204;-45
2021/06/25 11:58:59;;;;;;;9.23;5.15;;;;;;;;;;5004524;28;20233;-45
2021/06/25 12:01:25;;;;;;;5.70;5.05;;;;;;;;;;5015838;28;20543;-45
2021/06/25 12:03:51;;;;;;;5.72;4.70;;;;;;;;;;4999219;28;20445;-46
2021/06/25 12:06:18;;;;;;;5.18;4.65;;;;;;;;;;5005631;28;20199;-45
2021/06/25 12:08:57;;;;;;;6.60;5.68;;;;;;;;;;5005202;28;20311;-45
2021/06/25 12:11:24;;;;;;;5.55;4.82;;;;;;;;;;5012660;28;20227;-45
2021/06/25 12:13:59;;;;;;;5.85;4.70;;;;;;;;;;5008859;28;20176;-46
2021/06/25 12:16:25;;;;;;;6.88;5.38;;;;;;;;;;4999107;28;20172;-46
2021/06/25 12:18:51;;;;;;;5.72;5.13;;;;;;;;;;5004041;28;20203;-46
2021/06/25 12:21:18;;;;;;;5.97;5.47;;;;;;;;;;5010538;28;20185;-46
2021/06/25 12:23:44;;;;;;;6.03;5.05;;;;;;;;;;4999068;28;20205;-45
2021/06/25 12:26:15;;;;;;;6.07;5.47;;;;;;;;;;5008033;28;20461;-45
2021/06/25 12:28:41;;;;;;;5.78;5.28;;;;;;;;;;5008203;28;20870;-45
2021/06/25 12:31:18;;;;;;;7.22;5.30;;;;;;;;;;5004010;28;20187;-45
2021/06/25 12:33:44;;;;;;;6.32;5.05;;;;;;;;;;5002164;28;20184;-45
2021/06/25 12:36:12;;;;;;;6.72;5.00;;;;;;;;;;5002289;28;20196;-45
2021/06/25 12:38:38;;;;;;;5.78;5.18;;;;;;;;;;5001372;28;20177;-45
2021/06/25 12:41:05;;;;;;;6.10;5.07;;;;;;;;;;4997600;28;20184;-45
2021/06/25 12:43:32;;;;;;;5.78;5.18;;;;;;;;;;4999416;28;20193;-45
2021/06/25 12:46:04;;;;;;;5.28;4.78;;;;;;;;;;4998483;28;20607;-45
2021/06/25 12:48:31;;;;;;;5.53;5.03;;;;;;;;;;5002808;28;20291;-46
2021/06/25 12:51:03;;;;;;;6.07;5.05;;;;;;;;;;5004375;28;20224;-46
2021/06/25 12:53:30;;;;;;;5.32;4.82;;;;;;;;;;5004431;28;20188;-46
2021/06/25 12:55:58;;;;;;;5.43;4.93;;;;;;;;;;5007519;28;20181;-46
2021/06/25 12:58:25;;;;;;;5.22;4.80;;;;;;;;;;5002511;28;20204;-46
2021/06/25 13:00:58;;;;;;;5.80;5.30;;;;;;;;;;5000619;28;20181;-46
2021/06/25 13:03:24;;;;;;;8.23;5.40;;;;;;;;;;5000978;28;20319;-46
2021/06/25 13:05:50;;;;;;;5.10;4.53;;;;;;;;;;5000500;28;20436;-46
2021/06/25 13:08:17;;;;;;;4.82;4.43;;;;;;;;;;4998181;28;20196;-46
2021/06/25 13:10:44;;;;;;;4.85;4.45;;;;;;;;;;5000926;28;20212;-45
2021/06/25 13:13:21;;;;;;;5.85;4.90;;;;;;;;;;5002902;28;20188;-46
2021/06/25 13:15:48;;;;;;;5.65;5.05;;;;;;;;;;5002443;28;20177;-46
2021/06/25 13:18:18;;;;;;;4.95;4.55;;;;;;;;;;5006152;28;20273;-46
2021/06/25 13:21:03;;;;;;;5.38;4.63;;;;;;;;;;4998365;28;20228;-45
2021/06/25 13:23:30;;;;;;;5.38;4.72;;;;;;;;;;5003948;28;20206;-45
2021/06/25 13:26:06;;;;;;;5.03;4.28;;;;;;;;;;5008820;28;20456;-45
2021/06/25 13:28:32;;;;;;;4.68;4.28;;;;;;;;;;4999085;28;20236;-45
2021/06/25 13:31:05;;;;;;;5.35;4.30;;;;;;;;;;5005349;28;20514;-45
2021/06/25 13:33:42;;;;;;;6.80;4.78;;;;;;;;;;5001135;28;20479;-46
2021/06/25 13:36:09;;;;;;;5.57;4.35;;;;;;;;;;5002948;28;20562;-46
2021/06/25 13:38:35;;;;;;;5.32;4.82;;;;;;;;;;4999163;28;20239;-45
2021/06/25 13:41:21;;;;;;;7.10;4.97;;;;;;;;;;4999160;28;20785;-45
2021/06/25 13:43:55;;;;;;;7.35;4.65;;;;;;;;;;5000949;28;20441;-46
2021/06/25 13:46:22;;;;;;;6.00;5.13;;;;;;;;;;4996574;28;20246;-46
2021/06/25 13:49:00;;;;;;;6.45;4.60;;;;;;;;;;4999106;28;20874;-46
2021/06/25 13:51:26;;;;;;;6.80;4.22;;;;;;;;;;5002414;28;20173;-45
2021/06/25 13:53:52;;;;;;;6.53;4.75;;;;;;;;;;5000020;28;20193;-45
2021/06/25 13:56:26;;;;;;;6.82;4.43;;;;;;;;;;5003919;28;20276;-45
2021/06/25 13:58:59;;;;;;;5.43;4.20;;;;;;;;;;5002127;28;20258;-45
2021/06/25 14:01:28;;;;;;;5.53;4.78;;;;;;;;;;5003512;28;20184;-45
2021/06/25 14:03:55;;;;;;;5.10;4.35;;;;;;;;;;5001058;28;20567;-45
2021/06/25 14:06:21;;;;;;;5.70;4.28;;;;;;;;;;5009442;28;20271;-45
2021/06/25 14:08:47;;;;;;;7.07;4.60;;;;;;;;;;5005040;28;20308;-45
2021/06/25 14:11:20;;;;;;;5.13;4.35;;;;;;;;;;5002498;28;20181;-46
2021/06/25 14:13:48;;;;;;;5.57;4.20;;;;;;;;;;5003613;28;20250;-46
2021/06/25 14:16:17;;;;;;;4.47;4.07;;;;;;;;;;4997321;28;20188;-45
2021/06/25 14:18:44;;;;;;;4.70;4.05;;;;;;;;;;4997546;28;20193;-46
2021/06/25 14:21:10;;;;;;;5.43;3.60;;;;;;;;;;5004308;28;20180;-45
2021/06/25 14:23:36;;;;;;;4.90;4.40;;;;;;;;;;5006686;28;20191;-45
2021/06/25 14:26:05;;;;;;;4.78;3.92;;;;;;;;;;5010932;28;20290;-45
2021/06/25 14:28:32;;;;;;;4.57;4.05;;;;;;;;;;4996796;28;20339;-45
2021/06/25 14:30:58;;;;;;;4.50;3.88;;;;;;;;;;4996846;28;20574;-45
2021/06/25 14:33:24;;;;;;;5.80;4.22;;;;;;;;;;4994878;28;20248;-45
2021/06/25 14:35:51;;;;;;;6.13;4.65;;;;;;;;;;4994113;28;20196;-45
2021/06/25 14:38:17;;;;;;;4.22;3.63;;;;;;;;;;5006057;28;20174;-45
2021/06/25 14:40:43;;;;;;;4.65;4.10;;;;;;;;;;5002956;28;20196;-45
2021/06/25 14:43:10;;;;;;;4.30;3.75;;;;;;;;;;4996216;28;20445;-45
2021/06/25 14:45:36;;;;;;;4.20;3.80;;;;;;;;;;5003090;28;20181;-45
2021/06/25 14:48:01;;;;;;;4.15;3.75;;;;;;;;;;4997519;28;20170;-45
2021/06/25 14:50:27;;;;;;;4.68;3.88;;;;;;;;;;5002266;28;20662;-45
2021/06/25 14:52:53;;;;;;;4.65;3.47;;;;;;;;;;5008283;28;20168;-45
2021/06/25 14:55:19;;;;;;;4.30;3.90;;;;;;;;;;5000460;28;20459;-45
2021/06/25 14:57:46;;;;;;;3.90;3.58;;;;;;;;;;4999274;28;20183;-45
2021/06/25 15:00:12;;;;;;;4.97;3.75;;;;;;;;;;5000955;28;20622;-45